sensor_id;sensor_type;location;lat;lon;timestamp;temperature;humidity
9861;DHT22;4969;52.304;4.968;2023-07-13T00:01:54;22.00;63.82
9861;DHT22;4969;52.304;4.968;2023-07-13T00:04:22;22.33;63.23
9861;DHT22;4969;52.304;4.968;2023-07-13T00:06:51;22.50;63.27
9861;DHT22;4969;52.304;4.968;2023-07-13T00:09:18;22.41;62.22
9861;DHT22;4969;52.304;4.968;2023-07-13T00:11:50;22.78;62.43
9861;DHT22;4969;52.304;4.968;2023-07-13T00:14:17;23.12;61.33
9861;DHT22;4969;52.304;4.968;2023-07-13T00:16:46;23.46;60.11
9861;DHT22;4969;52.304;4.968;2023-07-13T00:19:13;23.47;60.02
9861;DHT22;4969;52.304;4.968;2023-07-13T00:21:40;23.16;60.49
9861;DHT22;4969;52.304;4.968;2023-07-13T00:24:12;22.99;61.45
9861;DHT22;4969;52.304;4.968;2023-07-13T00:26:39;23.16;60.36
9861;DHT22;4969;52.304;4.968;2023-07-13T00:29:11;23.04;60.69
9861;DHT22;4969;52.304;4.968;2023-07-13T00:31:38;22.98;61.28
9861;DHT22;4969;52.304;4.968;2023-07-13T00:34:06;22.95;61.25
9861;DHT22;4969;52.304;4.968;2023-07-13T00:36:33;23.02;61.37
9861;DHT22;4969;52.304;4.968;2023-07-13T00:39:00;23.03;61.06
9861;DHT22;4969;52.304;4.968;2023-07-13T00:41:30;23.22;60.77
9861;DHT22;4969;52.304;4.968;2023-07-13T00:43:57;23.04;60.87
9861;DHT22;4969;52.304;4.968;2023-07-13T00:46:26;23.19;60.94
9861;DHT22;4969;52.304;4.968;2023-07-13T00:48:54;23.09;61.22
9861;DHT22;4969;52.304;4.968;2023-07-13T00:51:35;22.79;61.21
9861;DHT22;4969;52.304;4.968;2023-07-13T00:54:04;22.71;62.20
9861;DHT22;4969;52.304;4.968;2023-07-13T00:56:32;22.28;62.64
9861;DHT22;4969;52.304;4.968;2023-07-13T00:59:00;21.98;64.13
9861;DHT22;4969;52.304;4.968;2023-07-13T01:01:29;21.65;64.39
9861;DHT22;4969;52.304;4.968;2023-07-13T01:03:55;21.92;64.40
9861;DHT22;4969;52.304;4.968;2023-07-13T01:06:24;21.68;64.81
9861;DHT22;4969;52.304;4.968;2023-07-13T01:08:51;21.62;64.79
9861;DHT22;4969;52.304;4.968;2023-07-13T01:11:19;21.58;64.96
9861;DHT22;4969;52.304;4.968;2023-07-13T01:13:47;21.61;65.34
9861;DHT22;4969;52.304;4.968;2023-07-13T01:16:18;21.88;64.96
9861;DHT22;4969;52.304;4.968;2023-07-13T01:18:46;21.98;64.39
9861;DHT22;4969;52.304;4.968;2023-07-13T01:21:14;21.36;65.44
9861;DHT22;4969;52.304;4.968;2023-07-13T01:23:41;21.38;66.97
9861;DHT22;4969;52.304;4.968;2023-07-13T01:26:09;21.66;64.53
9861;DHT22;4969;52.304;4.968;2023-07-13T01:28:37;21.71;65.96
9861;DHT22;4969;52.304;4.968;2023-07-13T01:31:04;21.57;64.70
9861;DHT22;4969;52.304;4.968;2023-07-13T01:33:31;21.82;64.46
9861;DHT22;4969;52.304;4.968;2023-07-13T01:35:58;21.92;64.08
9861;DHT22;4969;52.304;4.968;2023-07-13T01:38:27;21.58;63.87
9861;DHT22;4969;52.304;4.968;2023-07-13T01:40:54;21.38;64.86
9861;DHT22;4969;52.304;4.968;2023-07-13T01:43:20;21.59;65.19
9861;DHT22;4969;52.304;4.968;2023-07-13T01:45:47;21.54;64.95
9861;DHT22;4969;52.304;4.968;2023-07-13T01:48:15;21.10;64.51
9861;DHT22;4969;52.304;4.968;2023-07-13T01:50:41;21.20;66.29
9861;DHT22;4969;52.304;4.968;2023-07-13T01:53:09;21.33;65.97
9861;DHT22;4969;52.304;4.968;2023-07-13T01:55:37;21.03;64.24
9861;DHT22;4969;52.304;4.968;2023-07-13T01:58:05;20.85;66.28
9861;DHT22;4969;52.304;4.968;2023-07-13T02:00:32;20.61;65.99
9861;DHT22;4969;52.304;4.968;2023-07-13T02:02:59;21.00;67.19
9861;DHT22;4969;52.304;4.968;2023-07-13T02:05:26;21.14;65.53
9861;DHT22;4969;52.304;4.968;2023-07-13T02:07:52;21.28;65.54
9861;DHT22;4969;52.304;4.968;2023-07-13T02:10:20;21.18;64.45
9861;DHT22;4969;52.304;4.968;2023-07-13T02:12:48;20.83;65.77
9861;DHT22;4969;52.304;4.968;2023-07-13T02:15:17;21.00;64.91
9861;DHT22;4969;52.304;4.968;2023-07-13T02:17:44;20.96;65.38
9861;DHT22;4969;52.304;4.968;2023-07-13T02:20:11;21.07;65.66
9861;DHT22;4969;52.304;4.968;2023-07-13T02:22:38;20.65;66.26
9861;DHT22;4969;52.304;4.968;2023-07-13T02:25:05;20.96;66.79
9861;DHT22;4969;52.304;4.968;2023-07-13T02:27:32;20.99;65.89
9861;DHT22;4969;52.304;4.968;2023-07-13T02:30:01;20.96;66.19
9861;DHT22;4969;52.304;4.968;2023-07-13T02:32:28;21.03;64.92
9861;DHT22;4969;52.304;4.968;2023-07-13T02:34:55;20.55;65.03
9861;DHT22;4969;52.304;4.968;2023-07-13T02:37:22;21.13;66.62
9861;DHT22;4969;52.304;4.968;2023-07-13T02:39:49;20.83;63.86
9861;DHT22;4969;52.304;4.968;2023-07-13T02:42:16;21.14;65.84
9861;DHT22;4969;52.304;4.968;2023-07-13T02:44:44;21.45;65.01
9861;DHT22;4969;52.304;4.968;2023-07-13T02:47:12;21.21;64.73
9861;DHT22;4969;52.304;4.968;2023-07-13T02:49:39;21.45;64.51
9861;DHT22;4969;52.304;4.968;2023-07-13T02:52:06;21.69;63.79
9861;DHT22;4969;52.304;4.968;2023-07-13T02:54:33;21.61;64.49
9861;DHT22;4969;52.304;4.968;2023-07-13T02:57:00;21.44;65.07
9861;DHT22;4969;52.304;4.968;2023-07-13T02:59:27;22.02;62.82
9861;DHT22;4969;52.304;4.968;2023-07-13T03:01:55;22.36;61.74
9861;DHT22;4969;52.304;4.968;2023-07-13T03:04:27;22.19;62.42
9861;DHT22;4969;52.304;4.968;2023-07-13T03:06:53;21.81;63.25
9861;DHT22;4969;52.304;4.968;2023-07-13T03:09:23;21.54;61.82
9861;DHT22;4969;52.304;4.968;2023-07-13T03:11:52;21.34;62.13
9861;DHT22;4969;52.304;4.968;2023-07-13T03:14:19;21.50;62.91
9861;DHT22;4969;52.304;4.968;2023-07-13T03:16:46;21.24;62.68
9861;DHT22;4969;52.304;4.968;2023-07-13T03:19:13;20.93;62.77
9861;DHT22;4969;52.304;4.968;2023-07-13T03:21:41;21.26;63.97
9861;DHT22;4969;52.304;4.968;2023-07-13T03:24:08;21.11;65.35
9861;DHT22;4969;52.304;4.968;2023-07-13T03:26:35;21.30;63.43
9861;DHT22;4969;52.304;4.968;2023-07-13T03:29:02;21.68;63.91
9861;DHT22;4969;52.304;4.968;2023-07-13T03:31:34;22.05;62.91
9861;DHT22;4969;52.304;4.968;2023-07-13T03:34:01;21.78;63.27
9861;DHT22;4969;52.304;4.968;2023-07-13T03:36:30;22.23;61.98
9861;DHT22;4969;52.304;4.968;2023-07-13T03:39:01;21.88;61.91
9861;DHT22;4969;52.304;4.968;2023-07-13T03:41:28;21.88;62.62
9861;DHT22;4969;52.304;4.968;2023-07-13T03:43:56;22.28;62.15
9861;DHT22;4969;52.304;4.968;2023-07-13T03:46:22;22.76;60.73
9861;DHT22;4969;52.304;4.968;2023-07-13T03:48:49;22.86;60.31
9861;DHT22;4969;52.304;4.968;2023-07-13T03:51:17;22.61;60.21
9861;DHT22;4969;52.304;4.968;2023-07-13T03:53:45;22.63;60.82
9861;DHT22;4969;52.304;4.968;2023-07-13T03:56:14;22.31;61.17
9861;DHT22;4969;52.304;4.968;2023-07-13T03:58:42;22.50;60.84
9861;DHT22;4969;52.304;4.968;2023-07-13T04:01:10;22.78;60.21
9861;DHT22;4969;52.304;4.968;2023-07-13T04:03:37;22.83;60.11
9861;DHT22;4969;52.304;4.968;2023-07-13T04:06:07;22.53;60.63
9861;DHT22;4969;52.304;4.968;2023-07-13T04:08:36;22.37;60.17
9861;DHT22;4969;52.304;4.968;2023-07-13T04:11:04;22.79;60.33
9861;DHT22;4969;52.304;4.968;2023-07-13T04:13:33;22.36;60.22
9861;DHT22;4969;52.304;4.968;2023-07-13T04:16:00;21.86;62.09
9861;DHT22;4969;52.304;4.968;2023-07-13T04:18:27;21.98;61.71
9861;DHT22;4969;52.304;4.968;2023-07-13T04:20:54;22.20;62.02
9861;DHT22;4969;52.304;4.968;2023-07-13T04:23:20;22.44;60.01
9861;DHT22;4969;52.304;4.968;2023-07-13T04:25:48;22.63;60.95
9861;DHT22;4969;52.304;4.968;2023-07-13T04:28:18;22.69;60.82
9861;DHT22;4969;52.304;4.968;2023-07-13T04:30:46;22.51;60.57
9861;DHT22;4969;52.304;4.968;2023-07-13T04:33:13;22.43;61.58
9861;DHT22;4969;52.304;4.968;2023-07-13T04:35:40;22.31;61.30
9861;DHT22;4969;52.304;4.968;2023-07-13T04:38:06;22.74;60.80
9861;DHT22;4969;52.304;4.968;2023-07-13T04:40:36;22.96;59.98
9861;DHT22;4969;52.304;4.968;2023-07-13T04:43:03;23.02;59.60
9861;DHT22;4969;52.304;4.968;2023-07-13T04:45:31;22.85;59.70
9861;DHT22;4969;52.304;4.968;2023-07-13T04:48:04;23.00;59.56
9861;DHT22;4969;52.304;4.968;2023-07-13T04:50:31;23.06;59.29
9861;DHT22;4969;52.304;4.968;2023-07-13T04:52:57;23.06;59.37
9861;DHT22;4969;52.304;4.968;2023-07-13T04:55:24;23.07;59.33
9861;DHT22;4969;52.304;4.968;2023-07-13T04:57:58;23.15;59.17
9861;DHT22;4969;52.304;4.968;2023-07-13T05:00:26;23.16;59.26
9861;DHT22;4969;52.304;4.968;2023-07-13T05:03:05;23.15;59.37
9861;DHT22;4969;52.304;4.968;2023-07-13T05:05:34;23.20;59.32
9861;DHT22;4969;52.304;4.968;2023-07-13T05:08:00;23.19;59.26
9861;DHT22;4969;52.304;4.968;2023-07-13T05:10:27;23.13;59.61
9861;DHT22;4969;52.304;4.968;2023-07-13T05:12:59;23.13;59.97
9861;DHT22;4969;52.304;4.968;2023-07-13T05:15:32;23.19;59.84
9861;DHT22;4969;52.304;4.968;2023-07-13T05:18:02;23.26;59.94
9861;DHT22;4969;52.304;4.968;2023-07-13T05:20:29;23.31;59.86
9861;DHT22;4969;52.304;4.968;2023-07-13T05:22:56;23.34;59.73
9861;DHT22;4969;52.304;4.968;2023-07-13T05:25:23;23.36;60.00
9861;DHT22;4969;52.304;4.968;2023-07-13T05:27:50;23.47;59.88
9861;DHT22;4969;52.304;4.968;2023-07-13T05:30:18;23.38;59.83
9861;DHT22;4969;52.304;4.968;2023-07-13T05:32:45;23.34;60.16
9861;DHT22;4969;52.304;4.968;2023-07-13T05:35:14;23.33;60.52
9861;DHT22;4969;52.304;4.968;2023-07-13T05:37:44;23.33;60.40
9861;DHT22;4969;52.304;4.968;2023-07-13T05:40:15;23.38;60.48
9861;DHT22;4969;52.304;4.968;2023-07-13T05:43:04;23.38;60.55
9861;DHT22;4969;52.304;4.968;2023-07-13T05:45:40;23.41;60.76
9861;DHT22;4969;52.304;4.968;2023-07-13T05:48:09;23.48;60.58
9861;DHT22;4969;52.304;4.968;2023-07-13T05:50:37;23.51;60.45
9861;DHT22;4969;52.304;4.968;2023-07-13T05:53:07;23.48;60.51
9861;DHT22;4969;52.304;4.968;2023-07-13T05:55:34;23.48;60.65
9861;DHT22;4969;52.304;4.968;2023-07-13T05:58:01;23.53;60.77
9861;DHT22;4969;52.304;4.968;2023-07-13T06:00:31;23.61;60.62
9861;DHT22;4969;52.304;4.968;2023-07-13T06:02:59;23.57;60.92
9861;DHT22;4969;52.304;4.968;2023-07-13T06:05:29;23.59;60.91
9861;DHT22;4969;52.304;4.968;2023-07-13T06:08:00;23.65;60.84
9861;DHT22;4969;52.304;4.968;2023-07-13T06:10:27;23.61;61.20
9861;DHT22;4969;52.304;4.968;2023-07-13T06:12:58;23.55;61.65
9861;DHT22;4969;52.304;4.968;2023-07-13T06:15:24;23.64;61.56
9861;DHT22;4969;52.304;4.968;2023-07-13T06:17:51;23.68;61.10
9861;DHT22;4969;52.304;4.968;2023-07-13T06:20:26;23.73;61.26
9861;DHT22;4969;52.304;4.968;2023-07-13T06:22:56;23.68;60.83
9861;DHT22;4969;52.304;4.968;2023-07-13T06:25:24;23.71;60.82
9861;DHT22;4969;52.304;4.968;2023-07-13T06:27:52;23.82;60.38
9861;DHT22;4969;52.304;4.968;2023-07-13T06:30:24;23.85;60.34
9861;DHT22;4969;52.304;4.968;2023-07-13T06:32:53;23.85;60.06
9861;DHT22;4969;52.304;4.968;2023-07-13T06:35:23;23.93;59.86
9861;DHT22;4969;52.304;4.968;2023-07-13T06:37:50;24.06;59.53
9861;DHT22;4969;52.304;4.968;2023-07-13T06:40:17;24.08;59.00
9861;DHT22;4969;52.304;4.968;2023-07-13T06:42:46;24.01;58.98
9861;DHT22;4969;52.304;4.968;2023-07-13T06:45:13;23.65;58.95
9861;DHT22;4969;52.304;4.968;2023-07-13T06:47:40;23.61;59.52
9861;DHT22;4969;52.304;4.968;2023-07-13T06:50:09;23.62;58.79
9861;DHT22;4969;52.304;4.968;2023-07-13T06:52:36;23.61;58.76
9861;DHT22;4969;52.304;4.968;2023-07-13T06:55:08;23.67;58.91
9861;DHT22;4969;52.304;4.968;2023-07-13T06:57:37;23.51;59.71
9861;DHT22;4969;52.304;4.968;2023-07-13T07:00:06;23.44;59.82
9861;DHT22;4969;52.304;4.968;2023-07-13T07:02:35;23.58;59.47
9861;DHT22;4969;52.304;4.968;2023-07-13T07:05:02;23.69;59.08
9861;DHT22;4969;52.304;4.968;2023-07-13T07:07:29;23.23;59.24
9861;DHT22;4969;52.304;4.968;2023-07-13T07:09:56;22.79;61.42
9861;DHT22;4969;52.304;4.968;2023-07-13T07:12:23;22.95;61.56
9861;DHT22;4969;52.304;4.968;2023-07-13T07:14:50;22.83;60.60
9861;DHT22;4969;52.304;4.968;2023-07-13T07:17:18;22.41;61.24
9861;DHT22;4969;52.304;4.968;2023-07-13T07:19:44;22.47;61.64
9861;DHT22;4969;52.304;4.968;2023-07-13T07:22:11;22.60;61.46
9861;DHT22;4969;52.304;4.968;2023-07-13T07:24:38;22.54;60.65
9861;DHT22;4969;52.304;4.968;2023-07-13T07:27:06;22.93;59.46
9861;DHT22;4969;52.304;4.968;2023-07-13T07:29:33;22.64;60.13
9861;DHT22;4969;52.304;4.968;2023-07-13T07:32:00;23.16;61.01
9861;DHT22;4969;52.304;4.968;2023-07-13T07:34:28;22.95;57.80
9861;DHT22;4969;52.304;4.968;2023-07-13T07:37:01;22.26;60.16
9861;DHT22;4969;52.304;4.968;2023-07-13T07:39:28;21.95;62.77
9861;DHT22;4969;52.304;4.968;2023-07-13T07:41:55;21.95;63.01
9861;DHT22;4969;52.304;4.968;2023-07-13T07:44:21;21.79;62.59
9861;DHT22;4969;52.304;4.968;2023-07-13T07:46:48;21.73;62.82
9861;DHT22;4969;52.304;4.968;2023-07-13T07:49:20;21.24;62.82
9861;DHT22;4969;52.304;4.968;2023-07-13T07:51:48;21.45;62.51
9861;DHT22;4969;52.304;4.968;2023-07-13T07:54:16;21.50;62.37
9861;DHT22;4969;52.304;4.968;2023-07-13T07:56:43;21.34;62.16
9861;DHT22;4969;52.304;4.968;2023-07-13T07:59:11;21.47;63.39
9861;DHT22;4969;52.304;4.968;2023-07-13T08:01:37;21.11;63.79
9861;DHT22;4969;52.304;4.968;2023-07-13T08:04:04;20.83;63.04
9861;DHT22;4969;52.304;4.968;2023-07-13T08:06:32;20.93;64.02
9861;DHT22;4969;52.304;4.968;2023-07-13T08:09:00;21.41;62.49
9861;DHT22;4969;52.304;4.968;2023-07-13T08:11:30;21.33;64.02
9861;DHT22;4969;52.304;4.968;2023-07-13T08:13:57;21.50;63.99
9861;DHT22;4969;52.304;4.968;2023-07-13T08:16:24;21.96;61.21
9861;DHT22;4969;52.304;4.968;2023-07-13T08:18:51;21.81;58.76
9861;DHT22;4969;52.304;4.968;2023-07-13T08:21:18;21.73;61.33
9861;DHT22;4969;52.304;4.968;2023-07-13T08:23:46;21.69;61.72
9861;DHT22;4969;52.304;4.968;2023-07-13T08:26:14;22.38;60.58
9861;DHT22;4969;52.304;4.968;2023-07-13T08:28:41;22.06;58.39
9861;DHT22;4969;52.304;4.968;2023-07-13T08:31:09;22.44;57.51
9861;DHT22;4969;52.304;4.968;2023-07-13T08:33:36;22.44;58.39
9861;DHT22;4969;52.304;4.968;2023-07-13T08:36:04;22.55;59.71
9861;DHT22;4969;52.304;4.968;2023-07-13T08:38:31;22.89;56.15
9861;DHT22;4969;52.304;4.968;2023-07-13T08:40:58;23.24;56.70
9861;DHT22;4969;52.304;4.968;2023-07-13T08:43:28;22.55;57.24
9861;DHT22;4969;52.304;4.968;2023-07-13T08:46:02;22.33;58.93
9861;DHT22;4969;52.304;4.968;2023-07-13T08:48:32;22.05;59.09
9861;DHT22;4969;52.304;4.968;2023-07-13T08:51:04;21.51;60.64
9861;DHT22;4969;52.304;4.968;2023-07-13T08:53:41;21.20;58.99
9861;DHT22;4969;52.304;4.968;2023-07-13T08:56:11;20.85;60.26
9861;DHT22;4969;52.304;4.968;2023-07-13T08:58:41;21.30;59.77
9861;DHT22;4969;52.304;4.968;2023-07-13T09:01:15;22.03;59.03
9861;DHT22;4969;52.304;4.968;2023-07-13T09:03:49;21.92;59.08
9861;DHT22;4969;52.304;4.968;2023-07-13T09:06:21;22.08;57.57
9861;DHT22;4969;52.304;4.968;2023-07-13T09:08:56;21.81;58.52
9861;DHT22;4969;52.304;4.968;2023-07-13T09:11:36;21.98;58.16
9861;DHT22;4969;52.304;4.968;2023-07-13T09:17:03;21.41;59.52
9861;DHT22;4969;52.304;4.968;2023-07-13T09:19:32;21.30;59.30
9861;DHT22;4969;52.304;4.968;2023-07-13T09:22:02;21.58;59.88
9861;DHT22;4969;52.304;4.968;2023-07-13T09:24:35;21.03;58.88
9861;DHT22;4969;52.304;4.968;2023-07-13T09:27:10;21.59;60.80
9861;DHT22;4969;52.304;4.968;2023-07-13T09:29:44;22.44;59.09
9861;DHT22;4969;52.304;4.968;2023-07-13T09:32:14;22.02;58.31
9861;DHT22;4969;52.304;4.968;2023-07-13T09:34:50;21.99;59.67
9861;DHT22;4969;52.304;4.968;2023-07-13T09:37:18;21.83;58.72
9861;DHT22;4969;52.304;4.968;2023-07-13T09:39:48;22.08;58.70
9861;DHT22;4969;52.304;4.968;2023-07-13T09:42:17;21.68;58.94
9861;DHT22;4969;52.304;4.968;2023-07-13T09:44:53;21.73;59.40
9861;DHT22;4969;52.304;4.968;2023-07-13T09:47:22;21.50;58.64
9861;DHT22;4969;52.304;4.968;2023-07-13T09:49:55;21.59;58.36
9861;DHT22;4969;52.304;4.968;2023-07-13T09:52:21;21.54;60.19
9861;DHT22;4969;52.304;4.968;2023-07-13T09:54:50;21.93;58.07
9861;DHT22;4969;52.304;4.968;2023-07-13T09:57:19;22.00;60.85
9861;DHT22;4969;52.304;4.968;2023-07-13T09:59:48;22.17;56.77
9861;DHT22;4969;52.304;4.968;2023-07-13T10:02:25;22.34;59.18
9861;DHT22;4969;52.304;4.968;2023-07-13T10:04:56;22.16;59.94
9861;DHT22;4969;52.304;4.968;2023-07-13T10:07:23;22.38;57.05
9861;DHT22;4969;52.304;4.968;2023-07-13T10:09:52;22.06;57.59
9861;DHT22;4969;52.304;4.968;2023-07-13T10:12:19;22.48;59.17
9861;DHT22;4969;52.304;4.968;2023-07-13T10:14:50;22.54;58.48
9861;DHT22;4969;52.304;4.968;2023-07-13T10:17:19;21.75;57.68
9861;DHT22;4969;52.304;4.968;2023-07-13T10:19:52;21.86;60.27
9861;DHT22;4969;52.304;4.968;2023-07-13T10:22:25;21.72;61.35
9861;DHT22;4969;52.304;4.968;2023-07-13T10:24:54;21.51;58.05
9861;DHT22;4969;52.304;4.968;2023-07-13T10:27:28;21.31;58.86
9861;DHT22;4969;52.304;4.968;2023-07-13T10:30:02;21.59;60.40
9861;DHT22;4969;52.304;4.968;2023-07-13T10:32:34;22.05;61.41
9861;DHT22;4969;52.304;4.968;2023-07-13T10:35:02;22.50;56.76
9861;DHT22;4969;52.304;4.968;2023-07-13T10:37:39;22.71;59.70
9861;DHT22;4969;52.304;4.968;2023-07-13T10:40:13;21.96;58.03
9861;DHT22;4969;52.304;4.968;2023-07-13T10:42:44;21.59;60.40
9861;DHT22;4969;52.304;4.968;2023-07-13T10:45:14;21.78;59.03
9861;DHT22;4969;52.304;4.968;2023-07-13T10:47:42;22.41;57.84
9861;DHT22;4969;52.304;4.968;2023-07-13T10:50:15;22.24;59.61
9861;DHT22;4969;52.304;4.968;2023-07-13T10:52:45;22.17;58.05
9861;DHT22;4969;52.304;4.968;2023-07-13T10:55:33;22.81;57.31
9861;DHT22;4969;52.304;4.968;2023-07-13T10:58:02;23.04;57.82
9861;DHT22;4969;52.304;4.968;2023-07-13T11:00:32;22.88;55.75
9861;DHT22;4969;52.304;4.968;2023-07-13T11:03:00;22.02;57.83
9861;DHT22;4969;52.304;4.968;2023-07-13T11:05:31;21.53;59.25
9861;DHT22;4969;52.304;4.968;2023-07-13T11:08:11;21.48;57.96
9861;DHT22;4969;52.304;4.968;2023-07-13T11:10:51;21.82;57.69
9861;DHT22;4969;52.304;4.968;2023-07-13T11:13:37;21.91;57.76
9861;DHT22;4969;52.304;4.968;2023-07-13T11:16:12;21.65;57.36
9861;DHT22;4969;52.304;4.968;2023-07-13T11:18:39;21.83;59.71
9861;DHT22;4969;52.304;4.968;2023-07-13T11:21:19;22.38;56.31
9861;DHT22;4969;52.304;4.968;2023-07-13T11:23:53;22.47;61.38
9861;DHT22;4969;52.304;4.968;2023-07-13T11:26:39;22.45;57.60
9861;DHT22;4969;52.304;4.968;2023-07-13T11:29:09;22.23;58.29
9861;DHT22;4969;52.304;4.968;2023-07-13T11:31:36;22.00;58.21
9861;DHT22;4969;52.304;4.968;2023-07-13T11:34:13;21.78;54.60
9861;DHT22;4969;52.304;4.968;2023-07-13T11:36:43;21.37;56.79
9861;DHT22;4969;52.304;4.968;2023-07-13T11:39:17;21.48;57.16
9861;DHT22;4969;52.304;4.968;2023-07-13T11:41:48;21.93;57.30
9861;DHT22;4969;52.304;4.968;2023-07-13T11:44:17;22.10;55.82
9861;DHT22;4969;52.304;4.968;2023-07-13T11:46:46;21.69;57.21
9861;DHT22;4969;52.304;4.968;2023-07-13T11:49:16;21.73;57.30
9861;DHT22;4969;52.304;4.968;2023-07-13T11:51:44;21.69;57.62
9861;DHT22;4969;52.304;4.968;2023-07-13T11:54:26;21.76;58.59
9861;DHT22;4969;52.304;4.968;2023-07-13T11:56:53;21.68;57.61
9861;DHT22;4969;52.304;4.968;2023-07-13T11:59:23;21.53;60.55
9861;DHT22;4969;52.304;4.968;2023-07-13T12:01:52;22.53;59.07
9861;DHT22;4969;52.304;4.968;2023-07-13T12:04:22;21.83;60.02
9861;DHT22;4969;52.304;4.968;2023-07-13T12:07:03;21.58;59.85
9861;DHT22;4969;52.304;4.968;2023-07-13T12:09:32;21.95;60.70
9861;DHT22;4969;52.304;4.968;2023-07-13T12:12:02;21.72;58.37
9861;DHT22;4969;52.304;4.968;2023-07-13T12:14:29;21.59;58.82
9861;DHT22;4969;52.304;4.968;2023-07-13T12:16:59;21.43;59.37
9861;DHT22;4969;52.304;4.968;2023-07-13T12:19:27;21.43;59.33
9861;DHT22;4969;52.304;4.968;2023-07-13T12:21:58;21.53;59.66
9861;DHT22;4969;52.304;4.968;2023-07-13T12:24:26;21.61;59.49
9861;DHT22;4969;52.304;4.968;2023-07-13T12:26:54;21.83;58.93
9861;DHT22;4969;52.304;4.968;2023-07-13T12:29:21;21.40;59.13
9861;DHT22;4969;52.304;4.968;2023-07-13T12:31:49;21.72;59.52
9861;DHT22;4969;52.304;4.968;2023-07-13T12:34:19;22.21;57.47
9861;DHT22;4969;52.304;4.968;2023-07-13T12:36:47;22.17;58.66
9861;DHT22;4969;52.304;4.968;2023-07-13T12:39:19;21.78;58.82
9861;DHT22;4969;52.304;4.968;2023-07-13T12:41:47;21.85;59.02
9861;DHT22;4969;52.304;4.968;2023-07-13T12:44:16;21.99;59.22
9861;DHT22;4969;52.304;4.968;2023-07-13T12:46:56;21.98;59.24
9861;DHT22;4969;52.304;4.968;2023-07-13T12:49:25;21.99;58.94
9861;DHT22;4969;52.304;4.968;2023-07-13T12:51:57;22.36;58.19
9861;DHT22;4969;52.304;4.968;2023-07-13T12:54:28;22.54;58.29
9861;DHT22;4969;52.304;4.968;2023-07-13T12:56:55;22.17;58.47
9861;DHT22;4969;52.304;4.968;2023-07-13T12:59:26;22.37;57.80
9861;DHT22;4969;52.304;4.968;2023-07-13T13:01:55;21.66;58.26
9861;DHT22;4969;52.304;4.968;2023-07-13T13:04:22;21.83;60.44
9861;DHT22;4969;52.304;4.968;2023-07-13T13:07:00;22.44;57.75
9861;DHT22;4969;52.304;4.968;2023-07-13T13:09:28;22.79;57.70
9861;DHT22;4969;52.304;4.968;2023-07-13T13:11:55;22.95;58.48
9861;DHT22;4969;52.304;4.968;2023-07-13T13:14:22;23.00;57.05
9861;DHT22;4969;52.304;4.968;2023-07-13T13:16:50;22.72;55.98
9861;DHT22;4969;52.304;4.968;2023-07-13T13:19:20;22.98;58.12
9861;DHT22;4969;52.304;4.968;2023-07-13T13:21:47;23.34;59.26
9861;DHT22;4969;52.304;4.968;2023-07-13T13:24:17;22.75;57.15
9861;DHT22;4969;52.304;4.968;2023-07-13T13:26:47;22.74;58.59
9861;DHT22;4969;52.304;4.968;2023-07-13T13:29:16;22.60;57.44
9861;DHT22;4969;52.304;4.968;2023-07-13T13:31:44;22.89;57.28
9861;DHT22;4969;52.304;4.968;2023-07-13T13:34:12;21.92;58.12
9861;DHT22;4969;52.304;4.968;2023-07-13T13:36:40;21.85;59.86
9861;DHT22;4969;52.304;4.968;2023-07-13T13:39:18;22.36;59.37
9861;DHT22;4969;52.304;4.968;2023-07-13T13:41:47;22.93;56.34
9861;DHT22;4969;52.304;4.968;2023-07-13T13:44:15;22.23;56.67
9861;DHT22;4969;52.304;4.968;2023-07-13T13:46:43;21.93;57.18
9861;DHT22;4969;52.304;4.968;2023-07-13T13:49:13;22.27;60.33
9861;DHT22;4969;52.304;4.968;2023-07-13T13:51:41;22.95;58.38
9861;DHT22;4969;52.304;4.968;2023-07-13T13:54:11;23.57;56.27
9861;DHT22;4969;52.304;4.968;2023-07-13T13:56:38;23.33;54.07
9861;DHT22;4969;52.304;4.968;2023-07-13T13:59:06;22.57;55.35
9861;DHT22;4969;52.304;4.968;2023-07-13T14:01:34;22.44;56.43
9861;DHT22;4969;52.304;4.968;2023-07-13T14:04:01;22.48;56.31
9861;DHT22;4969;52.304;4.968;2023-07-13T14:06:28;22.24;56.57
9861;DHT22;4969;52.304;4.968;2023-07-13T14:08:55;22.26;56.32
9861;DHT22;4969;52.304;4.968;2023-07-13T14:11:22;22.78;56.61
9861;DHT22;4969;52.304;4.968;2023-07-13T14:13:50;23.10;55.74
9861;DHT22;4969;52.304;4.968;2023-07-13T14:16:20;22.28;56.59
9861;DHT22;4969;52.304;4.968;2023-07-13T14:18:48;21.99;56.65
9861;DHT22;4969;52.304;4.968;2023-07-13T14:21:17;22.61;58.97
9861;DHT22;4969;52.304;4.968;2023-07-13T14:23:46;22.76;56.29
9861;DHT22;4969;52.304;4.968;2023-07-13T14:26:15;22.68;54.03
9861;DHT22;4969;52.304;4.968;2023-07-13T14:28:44;22.12;54.88
9861;DHT22;4969;52.304;4.968;2023-07-13T14:31:12;22.14;54.83
9861;DHT22;4969;52.304;4.968;2023-07-13T14:33:40;22.00;59.28
9861;DHT22;4969;52.304;4.968;2023-07-13T14:36:20;22.37;56.38
9861;DHT22;4969;52.304;4.968;2023-07-13T14:38:48;22.58;59.51
9861;DHT22;4969;52.304;4.968;2023-07-13T14:41:27;22.45;56.18
9861;DHT22;4969;52.304;4.968;2023-07-13T14:43:54;22.61;58.27
9861;DHT22;4969;52.304;4.968;2023-07-13T14:46:27;22.81;56.42
9861;DHT22;4969;52.304;4.968;2023-07-13T14:49:01;22.37;59.39
9861;DHT22;4969;52.304;4.968;2023-07-13T14:51:29;22.50;56.30
9861;DHT22;4969;52.304;4.968;2023-07-13T14:53:56;22.41;57.33
9861;DHT22;4969;52.304;4.968;2023-07-13T14:56:23;22.57;57.09
9861;DHT22;4969;52.304;4.968;2023-07-13T14:58:50;22.78;55.77
9861;DHT22;4969;52.304;4.968;2023-07-13T15:01:18;22.72;55.30
9861;DHT22;4969;52.304;4.968;2023-07-13T15:03:48;22.65;57.47
9861;DHT22;4969;52.304;4.968;2023-07-13T15:06:18;23.10;59.09
9861;DHT22;4969;52.304;4.968;2023-07-13T15:08:45;22.75;58.15
9861;DHT22;4969;52.304;4.968;2023-07-13T15:11:12;22.75;57.76
9861;DHT22;4969;52.304;4.968;2023-07-13T15:13:39;22.69;54.94
9861;DHT22;4969;52.304;4.968;2023-07-13T15:16:15;22.89;55.39
9861;DHT22;4969;52.304;4.968;2023-07-13T15:18:42;23.43;60.28
9861;DHT22;4969;52.304;4.968;2023-07-13T15:21:19;23.71;52.95
9861;DHT22;4969;52.304;4.968;2023-07-13T15:23:49;23.51;53.39
9861;DHT22;4969;52.304;4.968;2023-07-13T15:26:17;23.55;58.23
9861;DHT22;4969;52.304;4.968;2023-07-13T15:28:45;23.20;55.37
9861;DHT22;4969;52.304;4.968;2023-07-13T15:31:20;22.85;60.12
9861;DHT22;4969;52.304;4.968;2023-07-13T15:33:48;23.15;55.35
9861;DHT22;4969;52.304;4.968;2023-07-13T15:36:16;22.78;55.24
9861;DHT22;4969;52.304;4.968;2023-07-13T15:38:43;23.19;55.88
9861;DHT22;4969;52.304;4.968;2023-07-13T15:41:17;23.48;54.39
9861;DHT22;4969;52.304;4.968;2023-07-13T15:43:45;23.30;59.65
9861;DHT22;4969;52.304;4.968;2023-07-13T15:46:13;22.83;56.11
9861;DHT22;4969;52.304;4.968;2023-07-13T15:48:40;22.33;58.31
9861;DHT22;4969;52.304;4.968;2023-07-13T15:51:20;22.92;59.40
9861;DHT22;4969;52.304;4.968;2023-07-13T15:53:49;23.40;57.89
9861;DHT22;4969;52.304;4.968;2023-07-13T15:56:20;22.79;56.43
9861;DHT22;4969;52.304;4.968;2023-07-13T15:58:47;22.53;56.84
9861;DHT22;4969;52.304;4.968;2023-07-13T16:01:15;22.41;60.06
9861;DHT22;4969;52.304;4.968;2023-07-13T16:03:41;22.27;58.14
9861;DHT22;4969;52.304;4.968;2023-07-13T16:06:18;23.18;56.21
9861;DHT22;4969;52.304;4.968;2023-07-13T16:08:46;22.67;56.72
9861;DHT22;4969;52.304;4.968;2023-07-13T16:11:20;23.06;57.21
9861;DHT22;4969;52.304;4.968;2023-07-13T16:13:48;23.30;57.70
9861;DHT22;4969;52.304;4.968;2023-07-13T16:16:19;23.67;55.70
9861;DHT22;4969;52.304;4.968;2023-07-13T16:18:46;22.65;56.45